Airfield :
LOGIN :

Register | Disclaimer

   EN    FR    IT 

 










Legend :    VFR   Marginal VFR   IFR   Intensive IFR   Very Intensive IFR
Visi :
Ceiling :
>= 8 km
>= 3000ft
5 to 8 km
1000 to 3000 ft
1500m to 5 km
500 to 1000 ft
800 to 1500m
200 to 500 ft
< 800m
< 200 ft
Symbols :   Thunderstorms  Fog  Heavy snow  Heavy precipitations  Wind > 20 kt
SIGMETs :     Misc.  Thunderstorms  Icing  Turbulence  Mountain Waves  Volcanic Ashes






- Airport Elevation : 268 ft
- IATA code : BFS


EGAA - Belfast Aldergrove

CURRENT METAR :
  • 220520Z VRB02KT CAVOK 08/07 Q1023

EXPIRED METARs :
  • 220450Z VRB02KT CAVOK 07/06 Q1023
  • 220420Z 33003KT 8000 NSC 06/06 Q1023
  • 220350Z VRB02KT 8000 FEW009 06/05 Q1023
  • 220320Z VRB01KT 7000 NSC 06/05 Q1023
  • 220250Z 02003KT 350V050 7000 NSC 07/06 Q1023

TAF TAF EGAA
Valid from the 22 at 06:00 until the 23 at 06:00 UTC


220454Z 2206/2306 33005KT CAVOK
BECMG 2214/2217 25010KT
PROB30
TEMPO 2214/2218 BKN035
BECMG 2218/2221 BKN030
BECMG 2221/2224 SCT006 BKN010
TEMPO 2221/2306 7000 RA -RADZ
TEMPO 2300/2306 BKN006
PROB30
TEMPO 2301/2306 4000 RADZ BKN003



MET'MAP, your aeronautical weather chart ! - Copyright ORBIFLY December 2007 - Disclaimer

ORBIFLY MET'MAP TEAM :

Programming & Development : Alexandra Zaïnal
Concept & original design : Baudouin d'Aumeries
Assistance for programming : Marc-Olivier Méhu
Technical & hardware support : Manuel Goepfert

Contact : metmap@orbifly.com




SOURCES & CREDITS :

   NOAA